sensor_id;sensor_type;location;lat;lon;timestamp;P1;durP1;ratioP1;P2;durP2;ratioP2
6832;SDS011;3454;42.654;23.378;2024-02-23T00:02:24;13.00;;;8.40;;
6832;SDS011;3454;42.654;23.378;2024-02-23T00:04:49;12.57;;;8.60;;
6832;SDS011;3454;42.654;23.378;2024-02-23T00:07:15;14.30;;;9.20;;
6832;SDS011;3454;42.654;23.378;2024-02-23T00:09:41;16.30;;;8.90;;
6832;SDS011;3454;42.654;23.378;2024-02-23T00:12:06;15.30;;;8.50;;
6832;SDS011;3454;42.654;23.378;2024-02-23T00:14:34;16.70;;;8.40;;
6832;SDS011;3454;42.654;23.378;2024-02-23T00:17:02;16.43;;;8.97;;
6832;SDS011;3454;42.654;23.378;2024-02-23T00:19:29;11.70;;;7.67;;
6832;SDS011;3454;42.654;23.378;2024-02-23T00:21:56;13.40;;;8.27;;
6832;SDS011;3454;42.654;23.378;2024-02-23T00:24:25;15.67;;;8.60;;
6832;SDS011;3454;42.654;23.378;2024-02-23T00:26:51;15.77;;;8.43;;
6832;SDS011;3454;42.654;23.378;2024-02-23T00:29:17;13.13;;;8.93;;
6832;SDS011;3454;42.654;23.378;2024-02-23T00:31:43;12.50;;;8.77;;
6832;SDS011;3454;42.654;23.378;2024-02-23T00:34:12;15.73;;;9.40;;
6832;SDS011;3454;42.654;23.378;2024-02-23T00:36:41;14.50;;;9.20;;
6832;SDS011;3454;42.654;23.378;2024-02-23T00:39:07;13.37;;;7.57;;
6832;SDS011;3454;42.654;23.378;2024-02-23T00:41:34;14.97;;;11.07;;
6832;SDS011;3454;42.654;23.378;2024-02-23T00:44:01;15.70;;;8.93;;
6832;SDS011;3454;42.654;23.378;2024-02-23T00:46:29;11.50;;;8.00;;
6832;SDS011;3454;42.654;23.378;2024-02-23T00:48:55;12.77;;;8.17;;
6832;SDS011;3454;42.654;23.378;2024-02-23T00:51:21;13.13;;;8.47;;
6832;SDS011;3454;42.654;23.378;2024-02-23T00:53:47;11.77;;;7.27;;
6832;SDS011;3454;42.654;23.378;2024-02-23T00:56:12;10.83;;;7.33;;
6832;SDS011;3454;42.654;23.378;2024-02-23T00:58:38;11.33;;;7.93;;
6832;SDS011;3454;42.654;23.378;2024-02-23T01:01:05;11.77;;;7.77;;
6832;SDS011;3454;42.654;23.378;2024-02-23T01:03:31;12.00;;;7.67;;
6832;SDS011;3454;42.654;23.378;2024-02-23T01:05:56;12.53;;;7.50;;
6832;SDS011;3454;42.654;23.378;2024-02-23T01:08:22;11.27;;;7.53;;
6832;SDS011;3454;42.654;23.378;2024-02-23T01:10:47;13.53;;;8.07;;
6832;SDS011;3454;42.654;23.378;2024-02-23T01:13:13;14.17;;;9.07;;
6832;SDS011;3454;42.654;23.378;2024-02-23T01:15:38;11.80;;;8.10;;
6832;SDS011;3454;42.654;23.378;2024-02-23T01:18:04;13.53;;;8.10;;
6832;SDS011;3454;42.654;23.378;2024-02-23T01:20:32;13.00;;;7.93;;
6832;SDS011;3454;42.654;23.378;2024-02-23T01:22:58;12.90;;;7.63;;
6832;SDS011;3454;42.654;23.378;2024-02-23T01:25:24;11.70;;;7.30;;
6832;SDS011;3454;42.654;23.378;2024-02-23T01:27:50;10.43;;;7.67;;
6832;SDS011;3454;42.654;23.378;2024-02-23T01:30:16;9.93;;;6.37;;
6832;SDS011;3454;42.654;23.378;2024-02-23T01:32:42;11.80;;;7.27;;
6832;SDS011;3454;42.654;23.378;2024-02-23T01:35:07;10.00;;;7.43;;
6832;SDS011;3454;42.654;23.378;2024-02-23T01:37:33;9.70;;;7.13;;
6832;SDS011;3454;42.654;23.378;2024-02-23T01:39:59;12.90;;;7.23;;
6832;SDS011;3454;42.654;23.378;2024-02-23T01:42:25;12.63;;;6.67;;
6832;SDS011;3454;42.654;23.378;2024-02-23T01:44:58;9.83;;;7.60;;
6832;SDS011;3454;42.654;23.378;2024-02-23T01:47:26;12.80;;;7.60;;
6832;SDS011;3454;42.654;23.378;2024-02-23T01:49:54;12.80;;;7.10;;
6832;SDS011;3454;42.654;23.378;2024-02-23T01:52:22;11.00;;;7.13;;
6832;SDS011;3454;42.654;23.378;2024-02-23T01:54:48;14.57;;;6.53;;
6832;SDS011;3454;42.654;23.378;2024-02-23T01:57:13;11.23;;;7.30;;
6832;SDS011;3454;42.654;23.378;2024-02-23T01:59:47;9.70;;;6.43;;
6832;SDS011;3454;42.654;23.378;2024-02-23T02:02:13;11.17;;;6.90;;
6832;SDS011;3454;42.654;23.378;2024-02-23T02:04:39;12.43;;;7.93;;
6832;SDS011;3454;42.654;23.378;2024-02-23T02:07:04;10.07;;;6.33;;
6832;SDS011;3454;42.654;23.378;2024-02-23T02:09:30;8.27;;;6.23;;
6832;SDS011;3454;42.654;23.378;2024-02-23T02:11:56;8.63;;;6.00;;
6832;SDS011;3454;42.654;23.378;2024-02-23T02:14:22;10.67;;;7.23;;
6832;SDS011;3454;42.654;23.378;2024-02-23T02:16:47;9.97;;;6.43;;
6832;SDS011;3454;42.654;23.378;2024-02-23T02:19:13;11.30;;;6.93;;
6832;SDS011;3454;42.654;23.378;2024-02-23T02:21:41;10.10;;;6.77;;
6832;SDS011;3454;42.654;23.378;2024-02-23T02:24:06;13.53;;;7.03;;
6832;SDS011;3454;42.654;23.378;2024-02-23T02:26:33;9.37;;;6.43;;
6832;SDS011;3454;42.654;23.378;2024-02-23T02:28:59;11.83;;;7.33;;
6832;SDS011;3454;42.654;23.378;2024-02-23T02:31:26;9.80;;;7.00;;
6832;SDS011;3454;42.654;23.378;2024-02-23T02:33:51;10.80;;;7.30;;
6832;SDS011;3454;42.654;23.378;2024-02-23T02:36:17;9.50;;;6.30;;
6832;SDS011;3454;42.654;23.378;2024-02-23T02:38:42;11.87;;;7.10;;
6832;SDS011;3454;42.654;23.378;2024-02-23T02:41:08;10.00;;;6.80;;
6832;SDS011;3454;42.654;23.378;2024-02-23T02:43:34;11.90;;;7.87;;
6832;SDS011;3454;42.654;23.378;2024-02-23T02:46:00;10.17;;;7.30;;
6832;SDS011;3454;42.654;23.378;2024-02-23T02:48:25;11.07;;;6.70;;
6832;SDS011;3454;42.654;23.378;2024-02-23T02:50:52;10.17;;;7.17;;
6832;SDS011;3454;42.654;23.378;2024-02-23T02:53:17;13.27;;;6.97;;
6832;SDS011;3454;42.654;23.378;2024-02-23T02:55:43;11.73;;;7.03;;
6832;SDS011;3454;42.654;23.378;2024-02-23T02:58:12;10.00;;;6.63;;
6832;SDS011;3454;42.654;23.378;2024-02-23T03:00:38;10.93;;;7.17;;
6832;SDS011;3454;42.654;23.378;2024-02-23T03:03:04;10.90;;;6.53;;
6832;SDS011;3454;42.654;23.378;2024-02-23T03:05:30;10.30;;;7.30;;
6832;SDS011;3454;42.654;23.378;2024-02-23T03:07:56;12.20;;;7.03;;
6832;SDS011;3454;42.654;23.378;2024-02-23T03:10:22;12.77;;;7.87;;
6832;SDS011;3454;42.654;23.378;2024-02-23T03:12:47;9.23;;;6.20;;
6832;SDS011;3454;42.654;23.378;2024-02-23T03:15:13;10.57;;;6.77;;
6832;SDS011;3454;42.654;23.378;2024-02-23T03:17:39;11.60;;;7.63;;
6832;SDS011;3454;42.654;23.378;2024-02-23T03:20:05;13.90;;;6.87;;
6832;SDS011;3454;42.654;23.378;2024-02-23T03:22:34;11.50;;;7.10;;
6832;SDS011;3454;42.654;23.378;2024-02-23T03:25:03;11.73;;;6.60;;
6832;SDS011;3454;42.654;23.378;2024-02-23T03:27:37;12.63;;;7.30;;
6832;SDS011;3454;42.654;23.378;2024-02-23T03:30:03;9.47;;;7.17;;
6832;SDS011;3454;42.654;23.378;2024-02-23T03:32:35;11.67;;;7.07;;
6832;SDS011;3454;42.654;23.378;2024-02-23T03:35:08;9.37;;;5.83;;
6832;SDS011;3454;42.654;23.378;2024-02-23T03:37:33;10.13;;;6.40;;
6832;SDS011;3454;42.654;23.378;2024-02-23T03:39:59;10.63;;;6.70;;
6832;SDS011;3454;42.654;23.378;2024-02-23T03:42:25;11.53;;;7.10;;
6832;SDS011;3454;42.654;23.378;2024-02-23T03:44:51;10.03;;;6.70;;
6832;SDS011;3454;42.654;23.378;2024-02-23T03:47:17;9.93;;;6.50;;
6832;SDS011;3454;42.654;23.378;2024-02-23T03:49:42;10.33;;;7.07;;
6832;SDS011;3454;42.654;23.378;2024-02-23T03:52:08;9.90;;;6.47;;
6832;SDS011;3454;42.654;23.378;2024-02-23T03:54:33;11.30;;;6.97;;
6832;SDS011;3454;42.654;23.378;2024-02-23T03:56:59;9.43;;;6.03;;
6832;SDS011;3454;42.654;23.378;2024-02-23T03:59:24;10.77;;;6.53;;
6832;SDS011;3454;42.654;23.378;2024-02-23T04:01:50;8.73;;;6.20;;
6832;SDS011;3454;42.654;23.378;2024-02-23T04:04:16;12.13;;;6.47;;
6832;SDS011;3454;42.654;23.378;2024-02-23T04:06:42;8.43;;;5.73;;
6832;SDS011;3454;42.654;23.378;2024-02-23T04:09:08;8.93;;;6.27;;
6832;SDS011;3454;42.654;23.378;2024-02-23T04:11:34;8.73;;;5.97;;
6832;SDS011;3454;42.654;23.378;2024-02-23T04:13:59;9.27;;;6.83;;
6832;SDS011;3454;42.654;23.378;2024-02-23T04:16:26;10.00;;;6.60;;
6832;SDS011;3454;42.654;23.378;2024-02-23T04:18:52;10.57;;;6.93;;
6832;SDS011;3454;42.654;23.378;2024-02-23T04:21:19;8.97;;;6.47;;
6832;SDS011;3454;42.654;23.378;2024-02-23T04:23:45;8.07;;;5.67;;
6832;SDS011;3454;42.654;23.378;2024-02-23T04:26:11;11.27;;;6.27;;
6832;SDS011;3454;42.654;23.378;2024-02-23T04:28:40;10.97;;;6.57;;
6832;SDS011;3454;42.654;23.378;2024-02-23T04:31:10;9.30;;;6.40;;
6832;SDS011;3454;42.654;23.378;2024-02-23T04:33:36;9.93;;;6.70;;
6832;SDS011;3454;42.654;23.378;2024-02-23T04:36:02;10.20;;;6.40;;
6832;SDS011;3454;42.654;23.378;2024-02-23T04:38:29;11.93;;;6.63;;
6832;SDS011;3454;42.654;23.378;2024-02-23T04:40:56;12.50;;;6.70;;
6832;SDS011;3454;42.654;23.378;2024-02-23T04:43:21;11.67;;;7.53;;
6832;SDS011;3454;42.654;23.378;2024-02-23T04:45:48;9.57;;;6.90;;
6832;SDS011;3454;42.654;23.378;2024-02-23T04:48:13;11.37;;;7.23;;
6832;SDS011;3454;42.654;23.378;2024-02-23T04:50:39;8.23;;;6.37;;
6832;SDS011;3454;42.654;23.378;2024-02-23T04:53:05;11.57;;;7.00;;
6832;SDS011;3454;42.654;23.378;2024-02-23T04:55:31;11.63;;;6.67;;
6832;SDS011;3454;42.654;23.378;2024-02-23T04:57:56;8.40;;;6.17;;
6832;SDS011;3454;42.654;23.378;2024-02-23T05:00:22;10.10;;;6.10;;
6832;SDS011;3454;42.654;23.378;2024-02-23T05:02:48;10.57;;;6.73;;
6832;SDS011;3454;42.654;23.378;2024-02-23T05:05:14;10.47;;;6.70;;
6832;SDS011;3454;42.654;23.378;2024-02-23T05:07:40;10.93;;;6.57;;
6832;SDS011;3454;42.654;23.378;2024-02-23T05:10:06;12.27;;;6.57;;
6832;SDS011;3454;42.654;23.378;2024-02-23T05:12:31;10.20;;;6.33;;
6832;SDS011;3454;42.654;23.378;2024-02-23T05:14:57;12.90;;;6.47;;
6832;SDS011;3454;42.654;23.378;2024-02-23T05:17:23;15.47;;;6.27;;
6832;SDS011;3454;42.654;23.378;2024-02-23T05:19:48;13.40;;;6.93;;
6832;SDS011;3454;42.654;23.378;2024-02-23T05:22:14;11.33;;;7.30;;
6832;SDS011;3454;42.654;23.378;2024-02-23T05:24:39;10.33;;;6.93;;
6832;SDS011;3454;42.654;23.378;2024-02-23T05:27:05;14.23;;;7.40;;
6832;SDS011;3454;42.654;23.378;2024-02-23T05:29:31;12.07;;;7.33;;
6832;SDS011;3454;42.654;23.378;2024-02-23T05:31:57;10.40;;;6.90;;
6832;SDS011;3454;42.654;23.378;2024-02-23T05:34:22;11.60;;;7.37;;
6832;SDS011;3454;42.654;23.378;2024-02-23T05:36:48;15.33;;;6.93;;
6832;SDS011;3454;42.654;23.378;2024-02-23T05:39:15;14.13;;;7.77;;
6832;SDS011;3454;42.654;23.378;2024-02-23T05:41:42;12.10;;;7.53;;
6832;SDS011;3454;42.654;23.378;2024-02-23T05:44:08;11.93;;;7.10;;
6832;SDS011;3454;42.654;23.378;2024-02-23T05:46:34;11.57;;;7.10;;
6832;SDS011;3454;42.654;23.378;2024-02-23T05:49:01;12.73;;;7.67;;
6832;SDS011;3454;42.654;23.378;2024-02-23T05:51:28;11.60;;;7.50;;
6832;SDS011;3454;42.654;23.378;2024-02-23T05:53:57;11.93;;;7.37;;
6832;SDS011;3454;42.654;23.378;2024-02-23T05:56:23;13.13;;;8.37;;
6832;SDS011;3454;42.654;23.378;2024-02-23T05:58:50;18.10;;;8.77;;
6832;SDS011;3454;42.654;23.378;2024-02-23T06:01:17;19.97;;;8.57;;
6832;SDS011;3454;42.654;23.378;2024-02-23T06:03:43;15.00;;;8.50;;
6832;SDS011;3454;42.654;23.378;2024-02-23T06:06:09;21.10;;;10.00;;
6832;SDS011;3454;42.654;23.378;2024-02-23T06:08:36;13.97;;;8.97;;
6832;SDS011;3454;42.654;23.378;2024-02-23T06:11:02;18.03;;;9.67;;
6832;SDS011;3454;42.654;23.378;2024-02-23T06:13:31;13.37;;;8.57;;
6832;SDS011;3454;42.654;23.378;2024-02-23T06:15:57;19.23;;;10.10;;
6832;SDS011;3454;42.654;23.378;2024-02-23T06:18:23;19.07;;;10.33;;
6832;SDS011;3454;42.654;23.378;2024-02-23T06:20:49;17.70;;;10.47;;
6832;SDS011;3454;42.654;23.378;2024-02-23T06:23:15;17.27;;;9.53;;
6832;SDS011;3454;42.654;23.378;2024-02-23T06:25:42;15.10;;;9.53;;
6832;SDS011;3454;42.654;23.378;2024-02-23T06:28:09;16.63;;;9.67;;
6832;SDS011;3454;42.654;23.378;2024-02-23T06:30:36;22.90;;;10.33;;
6832;SDS011;3454;42.654;23.378;2024-02-23T06:33:01;17.93;;;10.23;;
6832;SDS011;3454;42.654;23.378;2024-02-23T06:35:27;16.07;;;9.23;;
6832;SDS011;3454;42.654;23.378;2024-02-23T06:37:52;16.27;;;9.43;;
6832;SDS011;3454;42.654;23.378;2024-02-23T06:40:18;15.77;;;8.77;;
6832;SDS011;3454;42.654;23.378;2024-02-23T06:42:43;22.53;;;9.47;;
6832;SDS011;3454;42.654;23.378;2024-02-23T06:45:09;19.63;;;10.10;;
6832;SDS011;3454;42.654;23.378;2024-02-23T06:47:35;23.07;;;9.70;;
6832;SDS011;3454;42.654;23.378;2024-02-23T06:50:00;19.63;;;10.33;;
6832;SDS011;3454;42.654;23.378;2024-02-23T06:52:26;16.37;;;10.13;;
6832;SDS011;3454;42.654;23.378;2024-02-23T06:54:51;14.63;;;9.50;;
6832;SDS011;3454;42.654;23.378;2024-02-23T06:57:17;24.43;;;9.90;;
6832;SDS011;3454;42.654;23.378;2024-02-23T06:59:44;17.53;;;10.10;;
6832;SDS011;3454;42.654;23.378;2024-02-23T07:02:09;22.60;;;9.90;;
6832;SDS011;3454;42.654;23.378;2024-02-23T07:04:35;16.73;;;10.13;;
6832;SDS011;3454;42.654;23.378;2024-02-23T07:07:00;19.63;;;9.93;;
6832;SDS011;3454;42.654;23.378;2024-02-23T07:09:32;21.27;;;9.63;;
6832;SDS011;3454;42.654;23.378;2024-02-23T07:11:58;16.93;;;10.70;;
6832;SDS011;3454;42.654;23.378;2024-02-23T07:14:24;18.47;;;10.10;;
6832;SDS011;3454;42.654;23.378;2024-02-23T07:16:50;24.70;;;10.13;;
6832;SDS011;3454;42.654;23.378;2024-02-23T07:19:19;20.63;;;9.97;;
6832;SDS011;3454;42.654;23.378;2024-02-23T07:21:46;22.43;;;11.10;;
6832;SDS011;3454;42.654;23.378;2024-02-23T07:24:12;18.10;;;10.47;;
6832;SDS011;3454;42.654;23.378;2024-02-23T07:26:38;16.10;;;9.80;;
6832;SDS011;3454;42.654;23.378;2024-02-23T07:29:04;15.87;;;10.27;;
6832;SDS011;3454;42.654;23.378;2024-02-23T07:31:29;19.33;;;10.20;;
6832;SDS011;3454;42.654;23.378;2024-02-23T07:34:02;18.90;;;9.97;;
6832;SDS011;3454;42.654;23.378;2024-02-23T07:36:28;18.83;;;10.13;;
6832;SDS011;3454;42.654;23.378;2024-02-23T07:38:54;25.40;;;11.50;;
6832;SDS011;3454;42.654;23.378;2024-02-23T07:41:20;15.03;;;11.03;;
6832;SDS011;3454;42.654;23.378;2024-02-23T07:43:46;18.53;;;10.63;;
6832;SDS011;3454;42.654;23.378;2024-02-23T07:46:12;19.13;;;9.97;;
6832;SDS011;3454;42.654;23.378;2024-02-23T07:48:38;23.17;;;10.43;;
6832;SDS011;3454;42.654;23.378;2024-02-23T07:51:04;13.90;;;9.53;;
6832;SDS011;3454;42.654;23.378;2024-02-23T07:53:30;14.67;;;8.27;;
6832;SDS011;3454;42.654;23.378;2024-02-23T07:55:57;13.93;;;8.77;;
6832;SDS011;3454;42.654;23.378;2024-02-23T07:58:24;12.53;;;8.00;;
6832;SDS011;3454;42.654;23.378;2024-02-23T08:00:51;11.70;;;8.43;;
6832;SDS011;3454;42.654;23.378;2024-02-23T08:03:17;18.57;;;9.03;;
6832;SDS011;3454;42.654;23.378;2024-02-23T08:05:43;15.67;;;9.23;;
6832;SDS011;3454;42.654;23.378;2024-02-23T08:08:08;16.70;;;9.60;;
6832;SDS011;3454;42.654;23.378;2024-02-23T08:10:34;12.57;;;8.13;;
6832;SDS011;3454;42.654;23.378;2024-02-23T08:12:59;13.40;;;7.73;;
6832;SDS011;3454;42.654;23.378;2024-02-23T08:15:25;11.03;;;7.03;;
6832;SDS011;3454;42.654;23.378;2024-02-23T08:17:51;8.13;;;6.70;;
6832;SDS011;3454;42.654;23.378;2024-02-23T08:20:16;9.33;;;6.83;;
6832;SDS011;3454;42.654;23.378;2024-02-23T08:22:42;12.03;;;7.63;;
6832;SDS011;3454;42.654;23.378;2024-02-23T08:25:07;15.53;;;7.73;;
6832;SDS011;3454;42.654;23.378;2024-02-23T08:27:33;11.67;;;7.97;;
6832;SDS011;3454;42.654;23.378;2024-02-23T08:29:59;16.17;;;9.10;;
6832;SDS011;3454;42.654;23.378;2024-02-23T08:32:24;15.07;;;7.70;;
6832;SDS011;3454;42.654;23.378;2024-02-23T08:34:50;14.40;;;8.00;;
6832;SDS011;3454;42.654;23.378;2024-02-23T08:37:18;12.37;;;7.93;;
6832;SDS011;3454;42.654;23.378;2024-02-23T08:39:44;12.45;;;7.68;;
6832;SDS011;3454;42.654;23.378;2024-02-23T08:42:09;11.40;;;6.80;;
6832;SDS011;3454;42.654;23.378;2024-02-23T08:44:35;9.43;;;7.40;;
6832;SDS011;3454;42.654;23.378;2024-02-23T08:47:02;9.87;;;7.63;;
6832;SDS011;3454;42.654;23.378;2024-02-23T08:49:27;12.50;;;7.63;;
6832;SDS011;3454;42.654;23.378;2024-02-23T08:51:53;10.97;;;7.80;;
6832;SDS011;3454;42.654;23.378;2024-02-23T08:54:18;11.37;;;7.13;;
6832;SDS011;3454;42.654;23.378;2024-02-23T08:56:44;13.37;;;6.87;;
6832;SDS011;3454;42.654;23.378;2024-02-23T08:59:10;9.53;;;6.97;;
6832;SDS011;3454;42.654;23.378;2024-02-23T09:01:37;10.50;;;7.03;;
6832;SDS011;3454;42.654;23.378;2024-02-23T09:04:02;12.13;;;7.37;;
6832;SDS011;3454;42.654;23.378;2024-02-23T09:06:28;11.77;;;7.23;;
6832;SDS011;3454;42.654;23.378;2024-02-23T09:08:54;9.65;;;6.78;;
6832;SDS011;3454;42.654;23.378;2024-02-23T09:11:20;7.57;;;6.35;;
6832;SDS011;3454;42.654;23.378;2024-02-23T09:13:47;10.13;;;6.72;;
6832;SDS011;3454;42.654;23.378;2024-02-23T09:16:13;11.45;;;5.85;;
6832;SDS011;3454;42.654;23.378;2024-02-23T09:18:39;8.52;;;5.10;;
6832;SDS011;3454;42.654;23.378;2024-02-23T09:21:05;8.20;;;6.00;;
6832;SDS011;3454;42.654;23.378;2024-02-23T09:23:32;10.25;;;7.53;;
6832;SDS011;3454;42.654;23.378;2024-02-23T09:25:58;8.60;;;6.47;;
6832;SDS011;3454;42.654;23.378;2024-02-23T09:28:25;9.75;;;6.32;;
6832;SDS011;3454;42.654;23.378;2024-02-23T09:30:51;8.50;;;5.43;;
6832;SDS011;3454;42.654;23.378;2024-02-23T09:33:16;8.30;;;5.60;;
6832;SDS011;3454;42.654;23.378;2024-02-23T09:35:42;9.80;;;5.97;;
6832;SDS011;3454;42.654;23.378;2024-02-23T09:38:07;13.02;;;5.75;;
6832;SDS011;3454;42.654;23.378;2024-02-23T09:40:33;8.65;;;4.68;;
6832;SDS011;3454;42.654;23.378;2024-02-23T09:42:59;7.75;;;4.57;;
6832;SDS011;3454;42.654;23.378;2024-02-23T09:45:25;6.32;;;4.53;;
6832;SDS011;3454;42.654;23.378;2024-02-23T09:47:57;7.88;;;4.43;;
6832;SDS011;3454;42.654;23.378;2024-02-23T09:50:24;8.95;;;5.32;;
6832;SDS011;3454;42.654;23.378;2024-02-23T09:52:51;7.18;;;4.53;;
6832;SDS011;3454;42.654;23.378;2024-02-23T09:55:17;8.25;;;4.85;;
6832;SDS011;3454;42.654;23.378;2024-02-23T09:57:44;8.82;;;5.25;;
6832;SDS011;3454;42.654;23.378;2024-02-23T10:00:12;4.43;;;3.75;;
6832;SDS011;3454;42.654;23.378;2024-02-23T10:02:42;6.18;;;4.40;;
6832;SDS011;3454;42.654;23.378;2024-02-23T10:05:10;5.18;;;3.50;;
6832;SDS011;3454;42.654;23.378;2024-02-23T10:07:37;3.55;;;3.17;;
6832;SDS011;3454;42.654;23.378;2024-02-23T10:10:07;4.82;;;3.38;;
6832;SDS011;3454;42.654;23.378;2024-02-23T10:12:35;6.72;;;3.47;;
6832;SDS011;3454;42.654;23.378;2024-02-23T10:15:00;3.47;;;3.03;;
6832;SDS011;3454;42.654;23.378;2024-02-23T10:17:29;3.60;;;2.83;;
6832;SDS011;3454;42.654;23.378;2024-02-23T10:19:55;4.88;;;2.78;;
6832;SDS011;3454;42.654;23.378;2024-02-23T10:22:22;4.30;;;2.80;;
6832;SDS011;3454;42.654;23.378;2024-02-23T10:24:50;3.28;;;2.90;;
6832;SDS011;3454;42.654;23.378;2024-02-23T10:27:16;2.83;;;2.58;;
6832;SDS011;3454;42.654;23.378;2024-02-23T10:29:42;3.20;;;2.58;;
6832;SDS011;3454;42.654;23.378;2024-02-23T10:32:08;2.85;;;2.25;;
6832;SDS011;3454;42.654;23.378;2024-02-23T10:34:42;4.72;;;2.63;;
6832;SDS011;3454;42.654;23.378;2024-02-23T10:37:09;2.65;;;2.35;;
6832;SDS011;3454;42.654;23.378;2024-02-23T10:39:36;2.60;;;2.35;;
6832;SDS011;3454;42.654;23.378;2024-02-23T10:42:03;2.80;;;2.25;;
6832;SDS011;3454;42.654;23.378;2024-02-23T10:44:30;4.70;;;2.50;;
6832;SDS011;3454;42.654;23.378;2024-02-23T10:46:56;4.80;;;2.60;;
6832;SDS011;3454;42.654;23.378;2024-02-23T10:49:24;4.07;;;2.15;;
6832;SDS011;3454;42.654;23.378;2024-02-23T10:51:52;3.47;;;1.55;;
6832;SDS011;3454;42.654;23.378;2024-02-23T10:54:19;2.97;;;1.85;;
6832;SDS011;3454;42.654;23.378;2024-02-23T10:56:47;2.00;;;1.60;;
6832;SDS011;3454;42.654;23.378;2024-02-23T10:59:13;4.43;;;2.60;;
6832;SDS011;3454;42.654;23.378;2024-02-23T11:01:44;4.05;;;2.58;;
6832;SDS011;3454;42.654;23.378;2024-02-23T11:04:17;3.90;;;2.35;;
6832;SDS011;3454;42.654;23.378;2024-02-23T11:06:51;2.50;;;2.22;;
6832;SDS011;3454;42.654;23.378;2024-02-23T11:09:20;2.60;;;2.00;;
6832;SDS011;3454;42.654;23.378;2024-02-23T11:11:53;1.85;;;1.60;;
6832;SDS011;3454;42.654;23.378;2024-02-23T11:14:29;2.30;;;2.08;;
6832;SDS011;3454;42.654;23.378;2024-02-23T11:16:56;2.80;;;2.25;;
6832;SDS011;3454;42.654;23.378;2024-02-23T11:19:22;2.70;;;2.50;;
6832;SDS011;3454;42.654;23.378;2024-02-23T11:22:01;4.25;;;2.55;;
6832;SDS011;3454;42.654;23.378;2024-02-23T11:24:28;3.22;;;2.47;;
6832;SDS011;3454;42.654;23.378;2024-02-23T11:26:56;2.55;;;2.17;;
6832;SDS011;3454;42.654;23.378;2024-02-23T11:29:29;3.30;;;1.90;;
6832;SDS011;3454;42.654;23.378;2024-02-23T11:31:54;3.13;;;2.45;;
6832;SDS011;3454;42.654;23.378;2024-02-23T11:34:26;3.50;;;2.50;;
6832;SDS011;3454;42.654;23.378;2024-02-23T11:36:52;3.03;;;2.45;;
6832;SDS011;3454;42.654;23.378;2024-02-23T11:39:19;4.50;;;2.05;;
6832;SDS011;3454;42.654;23.378;2024-02-23T11:41:49;2.22;;;1.92;;
6832;SDS011;3454;42.654;23.378;2024-02-23T11:44:15;2.85;;;2.28;;
6832;SDS011;3454;42.654;23.378;2024-02-23T11:46:44;5.57;;;1.88;;
6832;SDS011;3454;42.654;23.378;2024-02-23T11:49:13;5.60;;;1.80;;
6832;SDS011;3454;42.654;23.378;2024-02-23T11:51:40;3.53;;;1.92;;
6832;SDS011;3454;42.654;23.378;2024-02-23T11:54:05;3.45;;;2.17;;
6832;SDS011;3454;42.654;23.378;2024-02-23T11:56:31;5.05;;;1.73;;
6832;SDS011;3454;42.654;23.378;2024-02-23T11:58:57;2.60;;;1.80;;
6832;SDS011;3454;42.654;23.378;2024-02-23T12:01:22;1.45;;;1.30;;
6832;SDS011;3454;42.654;23.378;2024-02-23T12:03:48;2.72;;;1.58;;
6832;SDS011;3454;42.654;23.378;2024-02-23T12:06:14;4.35;;;2.03;;
6832;SDS011;3454;42.654;23.378;2024-02-23T12:08:43;2.33;;;1.83;;
6832;SDS011;3454;42.654;23.378;2024-02-23T12:11:10;3.22;;;1.80;;
6832;SDS011;3454;42.654;23.378;2024-02-23T12:13:37;4.03;;;2.20;;
6832;SDS011;3454;42.654;23.378;2024-02-23T12:16:03;3.33;;;1.50;;
6832;SDS011;3454;42.654;23.378;2024-02-23T12:18:32;1.83;;;1.67;;
6832;SDS011;3454;42.654;23.378;2024-02-23T12:21:05;3.53;;;2.22;;
6832;SDS011;3454;42.654;23.378;2024-02-23T12:23:45;2.25;;;1.80;;
6832;SDS011;3454;42.654;23.378;2024-02-23T12:26:13;2.75;;;1.60;;
6832;SDS011;3454;42.654;23.378;2024-02-23T12:28:47;2.85;;;1.50;;
6832;SDS011;3454;42.654;23.378;2024-02-23T12:31:13;2.05;;;1.48;;
6832;SDS011;3454;42.654;23.378;2024-02-23T12:33:39;2.00;;;1.42;;
6832;SDS011;3454;42.654;23.378;2024-02-23T12:36:05;5.72;;;2.22;;
6832;SDS011;3454;42.654;23.378;2024-02-23T12:38:32;1.42;;;1.33;;
6832;SDS011;3454;42.654;23.378;2024-02-23T12:40:59;2.25;;;1.55;;
6832;SDS011;3454;42.654;23.378;2024-02-23T12:43:30;1.45;;;1.35;;
6832;SDS011;3454;42.654;23.378;2024-02-23T12:45:56;2.13;;;1.58;;
6832;SDS011;3454;42.654;23.378;2024-02-23T12:48:22;2.88;;;1.52;;
6832;SDS011;3454;42.654;23.378;2024-02-23T12:50:48;1.77;;;1.67;;
6832;SDS011;3454;42.654;23.378;2024-02-23T12:53:36;1.55;;;1.45;;
6832;SDS011;3454;42.654;23.378;2024-02-23T12:56:03;3.78;;;2.45;;
6832;SDS011;3454;42.654;23.378;2024-02-23T12:58:33;2.50;;;1.95;;
6832;SDS011;3454;42.654;23.378;2024-02-23T13:01:00;3.40;;;3.00;;
6832;SDS011;3454;42.654;23.378;2024-02-23T13:03:26;5.57;;;1.85;;
6832;SDS011;3454;42.654;23.378;2024-02-23T13:05:56;3.95;;;2.15;;
6832;SDS011;3454;42.654;23.378;2024-02-23T13:08:23;3.25;;;1.63;;
6832;SDS011;3454;42.654;23.378;2024-02-23T13:10:51;2.55;;;1.48;;
6832;SDS011;3454;42.654;23.378;2024-02-23T13:13:22;3.08;;;2.13;;
6832;SDS011;3454;42.654;23.378;2024-02-23T13:15:49;2.75;;;1.75;;
6832;SDS011;3454;42.654;23.378;2024-02-23T13:18:16;1.80;;;1.67;;
6832;SDS011;3454;42.654;23.378;2024-02-23T13:20:42;1.48;;;1.38;;
6832;SDS011;3454;42.654;23.378;2024-02-23T13:23:08;8.60;;;1.90;;
6832;SDS011;3454;42.654;23.378;2024-02-23T13:25:40;1.70;;;1.30;;
6832;SDS011;3454;42.654;23.378;2024-02-23T13:28:07;1.35;;;1.25;;
6832;SDS011;3454;42.654;23.378;2024-02-23T13:30:34;2.42;;;1.55;;
6832;SDS011;3454;42.654;23.378;2024-02-23T13:33:01;1.30;;;1.20;;
6832;SDS011;3454;42.654;23.378;2024-02-23T13:35:27;1.60;;;1.50;;
6832;SDS011;3454;42.654;23.378;2024-02-23T13:37:53;3.35;;;1.42;;
6832;SDS011;3454;42.654;23.378;2024-02-23T13:40:20;2.05;;;1.30;;
6832;SDS011;3454;42.654;23.378;2024-02-23T13:42:46;1.80;;;1.38;;
6832;SDS011;3454;42.654;23.378;2024-02-23T13:45:14;2.45;;;1.55;;
6832;SDS011;3454;42.654;23.378;2024-02-23T13:47:41;1.48;;;1.15;;
6832;SDS011;3454;42.654;23.378;2024-02-23T13:50:09;5.53;;;1.42;;
6832;SDS011;3454;42.654;23.378;2024-02-23T13:52:35;2.92;;;2.20;;
6832;SDS011;3454;42.654;23.378;2024-02-23T13:55:02;3.10;;;2.40;;
6832;SDS011;3454;42.654;23.378;2024-02-23T13:57:28;3.95;;;1.58;;
6832;SDS011;3454;42.654;23.378;2024-02-23T13:59:54;2.97;;;2.20;;
6832;SDS011;3454;42.654;23.378;2024-02-23T14:02:26;4.15;;;2.00;;
6832;SDS011;3454;42.654;23.378;2024-02-23T14:04:54;3.90;;;1.38;;
6832;SDS011;3454;42.654;23.378;2024-02-23T14:07:28;4.32;;;1.88;;
6832;SDS011;3454;42.654;23.378;2024-02-23T14:09:54;2.92;;;1.58;;
6832;SDS011;3454;42.654;23.378;2024-02-23T14:12:20;3.83;;;1.60;;
6832;SDS011;3454;42.654;23.378;2024-02-23T14:14:45;1.65;;;1.55;;
6832;SDS011;3454;42.654;23.378;2024-02-23T14:17:11;1.80;;;1.40;;
6832;SDS011;3454;42.654;23.378;2024-02-23T14:19:36;2.78;;;1.60;;
6832;SDS011;3454;42.654;23.378;2024-02-23T14:22:02;3.78;;;1.73;;
6832;SDS011;3454;42.654;23.378;2024-02-23T14:24:28;1.67;;;1.55;;
6832;SDS011;3454;42.654;23.378;2024-02-23T14:26:53;1.70;;;1.60;;
6832;SDS011;3454;42.654;23.378;2024-02-23T14:29:20;2.08;;;1.60;;
6832;SDS011;3454;42.654;23.378;2024-02-23T14:31:45;1.73;;;1.63;;
6832;SDS011;3454;42.654;23.378;2024-02-23T14:34:11;4.00;;;1.80;;
6832;SDS011;3454;42.654;23.378;2024-02-23T14:36:37;4.25;;;2.08;;
6832;SDS011;3454;42.654;23.378;2024-02-23T14:39:03;2.53;;;1.77;;
6832;SDS011;3454;42.654;23.378;2024-02-23T14:41:30;3.97;;;1.90;;
6832;SDS011;3454;42.654;23.378;2024-02-23T14:43:56;2.67;;;1.80;;
6832;SDS011;3454;42.654;23.378;2024-02-23T14:46:22;2.92;;;2.08;;
6832;SDS011;3454;42.654;23.378;2024-02-23T14:48:47;3.05;;;1.77;;
6832;SDS011;3454;42.654;23.378;2024-02-23T14:51:15;3.90;;;2.05;;